sensor_id;sensor_type;location;lat;lon;timestamp;pressure;altitude;pressure_sealevel;temperature;humidity
5284;BME280;15377;48.540;9.268;2023-09-08T00:00:31;97722.59;;;15.00;100.00
5284;BME280;15377;48.540;9.268;2023-09-08T00:02:56;97720.97;;;14.88;100.00
5284;BME280;15377;48.540;9.268;2023-09-08T00:05:22;97723.63;;;14.72;100.00
5284;BME280;15377;48.540;9.268;2023-09-08T00:07:47;97716.50;;;14.66;100.00
5284;BME280;15377;48.540;9.268;2023-09-08T00:10:12;97712.94;;;14.60;100.00
5284;BME280;15377;48.540;9.268;2023-09-08T00:12:38;97713.38;;;14.53;100.00
5284;BME280;15377;48.540;9.268;2023-09-08T00:15:04;97709.44;;;14.65;100.00
5284;BME280;15377;48.540;9.268;2023-09-08T00:17:29;97712.69;;;14.94;100.00
5284;BME280;15377;48.540;9.268;2023-09-08T00:19:57;97720.69;;;15.17;100.00
5284;BME280;15377;48.540;9.268;2023-09-08T00:22:22;97710.03;;;15.10;100.00
5284;BME280;15377;48.540;9.268;2023-09-08T00:24:47;97696.03;;;14.88;100.00
5284;BME280;15377;48.540;9.268;2023-09-08T00:27:13;97710.34;;;14.81;100.00
5284;BME280;15377;48.540;9.268;2023-09-08T00:29:39;97701.09;;;14.59;100.00
5284;BME280;15377;48.540;9.268;2023-09-08T00:32:04;97711.56;;;14.75;100.00
5284;BME280;15377;48.540;9.268;2023-09-08T00:34:29;97698.09;;;14.63;100.00
5284;BME280;15377;48.540;9.268;2023-09-08T00:36:55;97700.03;;;14.82;100.00
5284;BME280;15377;48.540;9.268;2023-09-08T00:39:20;97702.91;;;14.98;100.00
5284;BME280;15377;48.540;9.268;2023-09-08T00:41:45;97702.44;;;15.05;100.00
5284;BME280;15377;48.540;9.268;2023-09-08T00:44:11;97705.84;;;14.89;100.00
5284;BME280;15377;48.540;9.268;2023-09-08T00:46:36;97704.97;;;14.73;100.00
5284;BME280;15377;48.540;9.268;2023-09-08T00:49:02;97695.38;;;14.68;100.00
5284;BME280;15377;48.540;9.268;2023-09-08T00:51:28;97699.34;;;14.62;100.00
5284;BME280;15377;48.540;9.268;2023-09-08T00:53:53;97697.66;;;14.70;100.00
5284;BME280;15377;48.540;9.268;2023-09-08T00:56:19;97706.59;;;14.54;100.00
5284;BME280;15377;48.540;9.268;2023-09-08T00:58:45;97686.41;;;14.48;100.00
5284;BME280;15377;48.540;9.268;2023-09-08T01:01:11;97692.13;;;14.70;100.00
5284;BME280;15377;48.540;9.268;2023-09-08T01:03:36;97688.97;;;14.87;100.00
5284;BME280;15377;48.540;9.268;2023-09-08T01:06:02;97678.09;;;14.78;100.00
5284;BME280;15377;48.540;9.268;2023-09-08T01:08:27;97703.66;;;14.63;100.00
5284;BME280;15377;48.540;9.268;2023-09-08T01:10:53;97701.28;;;14.50;100.00
5284;BME280;15377;48.540;9.268;2023-09-08T01:13:19;97709.97;;;14.38;100.00
5284;BME280;15377;48.540;9.268;2023-09-08T01:15:44;97704.53;;;14.49;100.00
5284;BME280;15377;48.540;9.268;2023-09-08T01:18:10;97696.66;;;14.42;100.00
5284;BME280;15377;48.540;9.268;2023-09-08T01:20:48;97699.16;;;14.40;100.00
5284;BME280;15377;48.540;9.268;2023-09-08T01:23:45;97709.69;;;14.36;100.00
5284;BME280;15377;48.540;9.268;2023-09-08T01:26:18;97699.63;;;14.13;100.00
5284;BME280;15377;48.540;9.268;2023-09-08T01:28:49;97696.25;;;14.03;100.00
5284;BME280;15377;48.540;9.268;2023-09-08T01:31:15;97710.56;;;14.02;100.00
5284;BME280;15377;48.540;9.268;2023-09-08T01:33:41;97710.53;;;13.96;100.00
5284;BME280;15377;48.540;9.268;2023-09-08T01:36:07;97702.84;;;13.86;100.00
5284;BME280;15377;48.540;9.268;2023-09-08T01:38:33;97702.84;;;13.86;100.00
5284;BME280;15377;48.540;9.268;2023-09-08T01:40:58;97703.00;;;13.97;100.00
5284;BME280;15377;48.540;9.268;2023-09-08T01:43:23;97697.72;;;13.79;100.00
5284;BME280;15377;48.540;9.268;2023-09-08T01:45:49;97691.66;;;13.75;100.00
5284;BME280;15377;48.540;9.268;2023-09-08T01:48:14;97689.16;;;13.77;100.00
5284;BME280;15377;48.540;9.268;2023-09-08T01:50:40;97698.94;;;13.72;100.00
5284;BME280;15377;48.540;9.268;2023-09-08T01:53:05;97695.31;;;13.66;100.00
5284;BME280;15377;48.540;9.268;2023-09-08T01:55:30;97699.56;;;13.62;100.00
5284;BME280;15377;48.540;9.268;2023-09-08T01:57:56;97690.72;;;13.58;100.00
5284;BME280;15377;48.540;9.268;2023-09-08T02:00:21;97694.84;;;13.48;100.00
5284;BME280;15377;48.540;9.268;2023-09-08T02:02:46;97694.31;;;13.44;100.00
5284;BME280;15377;48.540;9.268;2023-09-08T02:05:12;97680.06;;;13.31;100.00
5284;BME280;15377;48.540;9.268;2023-09-08T02:07:37;97684.63;;;13.34;100.00
5284;BME280;15377;48.540;9.268;2023-09-08T02:10:02;97691.41;;;13.53;100.00
5284;BME280;15377;48.540;9.268;2023-09-08T02:12:28;97688.56;;;13.47;100.00
5284;BME280;15377;48.540;9.268;2023-09-08T02:14:53;97687.66;;;13.36;100.00
5284;BME280;15377;48.540;9.268;2023-09-08T02:17:19;97688.63;;;13.33;100.00
5284;BME280;15377;48.540;9.268;2023-09-08T02:19:44;97682.28;;;13.27;100.00
5284;BME280;15377;48.540;9.268;2023-09-08T02:22:10;97685.59;;;13.31;100.00
5284;BME280;15377;48.540;9.268;2023-09-08T02:24:35;97684.84;;;13.30;100.00
5284;BME280;15377;48.540;9.268;2023-09-08T02:27:01;97684.47;;;13.23;100.00
5284;BME280;15377;48.540;9.268;2023-09-08T02:29:26;97671.34;;;13.18;100.00
5284;BME280;15377;48.540;9.268;2023-09-08T02:31:51;97681.56;;;13.32;100.00
5284;BME280;15377;48.540;9.268;2023-09-08T02:34:17;97678.19;;;13.22;100.00
5284;BME280;15377;48.540;9.268;2023-09-08T02:36:42;97690.41;;;13.16;100.00
5284;BME280;15377;48.540;9.268;2023-09-08T02:39:08;97686.53;;;13.08;100.00
5284;BME280;15377;48.540;9.268;2023-09-08T02:41:33;97678.09;;;12.97;100.00
5284;BME280;15377;48.540;9.268;2023-09-08T02:43:59;97695.84;;;13.10;100.00
5284;BME280;15377;48.540;9.268;2023-09-08T02:46:24;97673.47;;;12.94;100.00
5284;BME280;15377;48.540;9.268;2023-09-08T02:48:51;97687.22;;;13.03;100.00
5284;BME280;15377;48.540;9.268;2023-09-08T02:51:16;97687.69;;;13.01;100.00
5284;BME280;15377;48.540;9.268;2023-09-08T02:53:42;97682.63;;;13.00;100.00
5284;BME280;15377;48.540;9.268;2023-09-08T02:56:07;97683.00;;;12.93;100.00
5284;BME280;15377;48.540;9.268;2023-09-08T02:58:34;97691.91;;;12.97;100.00
5284;BME280;15377;48.540;9.268;2023-09-08T03:01:16;97693.88;;;13.11;100.00
5284;BME280;15377;48.540;9.268;2023-09-08T03:03:44;97688.66;;;12.98;100.00
5284;BME280;15377;48.540;9.268;2023-09-08T03:06:10;97691.03;;;12.91;100.00
5284;BME280;15377;48.540;9.268;2023-09-08T03:08:36;97693.78;;;12.91;100.00
5284;BME280;15377;48.540;9.268;2023-09-08T03:11:02;97679.81;;;12.80;100.00
5284;BME280;15377;48.540;9.268;2023-09-08T03:13:28;97689.03;;;12.77;100.00
5284;BME280;15377;48.540;9.268;2023-09-08T03:15:55;97684.59;;;12.65;100.00
5284;BME280;15377;48.540;9.268;2023-09-08T03:18:21;97680.44;;;12.55;100.00
5284;BME280;15377;48.540;9.268;2023-09-08T03:20:50;97688.41;;;12.53;100.00
5284;BME280;15377;48.540;9.268;2023-09-08T03:23:15;97678.53;;;12.46;100.00
5284;BME280;15377;48.540;9.268;2023-09-08T03:25:42;97688.53;;;12.44;100.00
5284;BME280;15377;48.540;9.268;2023-09-08T03:28:07;97682.63;;;12.36;100.00
5284;BME280;15377;48.540;9.268;2023-09-08T03:30:32;97681.22;;;12.41;100.00
5284;BME280;15377;48.540;9.268;2023-09-08T03:32:58;97687.28;;;12.45;100.00
5284;BME280;15377;48.540;9.268;2023-09-08T03:35:23;97686.34;;;12.48;100.00
5284;BME280;15377;48.540;9.268;2023-09-08T03:37:49;97679.59;;;12.49;100.00
5284;BME280;15377;48.540;9.268;2023-09-08T03:40:14;97687.63;;;12.67;100.00
5284;BME280;15377;48.540;9.268;2023-09-08T03:42:39;97681.16;;;12.70;100.00
5284;BME280;15377;48.540;9.268;2023-09-08T03:45:07;97682.69;;;12.71;100.00
5284;BME280;15377;48.540;9.268;2023-09-08T03:47:32;97683.63;;;12.68;100.00
5284;BME280;15377;48.540;9.268;2023-09-08T03:49:58;97681.34;;;12.66;100.00
5284;BME280;15377;48.540;9.268;2023-09-08T03:52:23;97676.25;;;12.59;100.00
5284;BME280;15377;48.540;9.268;2023-09-08T03:54:49;97684.03;;;12.61;100.00
5284;BME280;15377;48.540;9.268;2023-09-08T03:57:14;97669.41;;;12.55;100.00
5284;BME280;15377;48.540;9.268;2023-09-08T03:59:39;97685.84;;;12.64;100.00
5284;BME280;15377;48.540;9.268;2023-09-08T04:02:05;97683.28;;;12.60;100.00
5284;BME280;15377;48.540;9.268;2023-09-08T04:04:30;97660.53;;;12.51;100.00
5284;BME280;15377;48.540;9.268;2023-09-08T04:06:55;97674.59;;;12.53;100.00
5284;BME280;15377;48.540;9.268;2023-09-08T04:09:21;97678.31;;;12.64;100.00
5284;BME280;15377;48.540;9.268;2023-09-08T04:11:46;97689.16;;;12.68;100.00
5284;BME280;15377;48.540;9.268;2023-09-08T04:14:11;97678.13;;;12.68;100.00
5284;BME280;15377;48.540;9.268;2023-09-08T04:16:37;97687.50;;;12.90;100.00
5284;BME280;15377;48.540;9.268;2023-09-08T04:19:02;97682.94;;;13.22;100.00
5284;BME280;15377;48.540;9.268;2023-09-08T04:21:28;97681.56;;;13.32;100.00
5284;BME280;15377;48.540;9.268;2023-09-08T04:23:53;97675.06;;;13.15;100.00
5284;BME280;15377;48.540;9.268;2023-09-08T04:26:18;97685.97;;;13.04;100.00
5284;BME280;15377;48.540;9.268;2023-09-08T04:28:44;97690.84;;;12.94;100.00
5284;BME280;15377;48.540;9.268;2023-09-08T04:31:09;97695.41;;;12.97;100.00
5284;BME280;15377;48.540;9.268;2023-09-08T04:33:34;97705.31;;;12.89;100.00
5284;BME280;15377;48.540;9.268;2023-09-08T04:36:00;97695.81;;;12.90;100.00
5284;BME280;15377;48.540;9.268;2023-09-08T04:38:25;97688.94;;;12.86;100.00
5284;BME280;15377;48.540;9.268;2023-09-08T04:40:50;97707.59;;;12.91;100.00
5284;BME280;15377;48.540;9.268;2023-09-08T04:43:16;97698.25;;;12.88;100.00
5284;BME280;15377;48.540;9.268;2023-09-08T04:45:41;97715.66;;;13.09;100.00
5284;BME280;15377;48.540;9.268;2023-09-08T04:48:06;97709.88;;;13.07;100.00
5284;BME280;15377;48.540;9.268;2023-09-08T04:50:32;97712.34;;;13.05;100.00
5284;BME280;15377;48.540;9.268;2023-09-08T04:52:58;97708.75;;;12.99;100.00
5284;BME280;15377;48.540;9.268;2023-09-08T04:55:23;97708.75;;;12.99;100.00
5284;BME280;15377;48.540;9.268;2023-09-08T04:57:48;97707.22;;;12.98;100.00
5284;BME280;15377;48.540;9.268;2023-09-08T05:00:14;97702.69;;;12.95;100.00
5284;BME280;15377;48.540;9.268;2023-09-08T05:02:40;97698.06;;;13.06;100.00
5284;BME280;15377;48.540;9.268;2023-09-08T05:05:05;97709.59;;;13.39;100.00
5284;BME280;15377;48.540;9.268;2023-09-08T05:07:31;97712.28;;;13.54;100.00
5284;BME280;15377;48.540;9.268;2023-09-08T05:09:56;97696.50;;;13.40;100.00
5284;BME280;15377;48.540;9.268;2023-09-08T05:12:21;97697.06;;;13.44;100.00
5284;BME280;15377;48.540;9.268;2023-09-08T05:14:47;97709.09;;;13.61;100.00
5284;BME280;15377;48.540;9.268;2023-09-08T05:17:12;97697.34;;;13.66;100.00
5284;BME280;15377;48.540;9.268;2023-09-08T05:19:37;97708.13;;;13.64;100.00
5284;BME280;15377;48.540;9.268;2023-09-08T05:22:04;97714.91;;;13.63;100.00
5284;BME280;15377;48.540;9.268;2023-09-08T05:24:30;97721.69;;;13.62;100.00
5284;BME280;15377;48.540;9.268;2023-09-08T05:26:55;97713.53;;;13.53;100.00
5284;BME280;15377;48.540;9.268;2023-09-08T05:29:21;97719.25;;;13.49;100.00
5284;BME280;15377;48.540;9.268;2023-09-08T05:31:47;97717.94;;;13.45;100.00
5284;BME280;15377;48.540;9.268;2023-09-08T05:34:12;97717.38;;;13.41;100.00
5284;BME280;15377;48.540;9.268;2023-09-08T05:36:37;97717.94;;;13.45;100.00
5284;BME280;15377;48.540;9.268;2023-09-08T05:39:05;97726.31;;;13.50;100.00
5284;BME280;15377;48.540;9.268;2023-09-08T05:41:30;97724.00;;;13.49;100.00
5284;BME280;15377;48.540;9.268;2023-09-08T05:43:57;97730.09;;;13.53;100.00
5284;BME280;15377;48.540;9.268;2023-09-08T05:46:22;97725.56;;;13.50;100.00
5284;BME280;15377;48.540;9.268;2023-09-08T05:48:47;97735.03;;;13.63;100.00
5284;BME280;15377;48.540;9.268;2023-09-08T05:51:13;97723.91;;;13.58;100.00
5284;BME280;15377;48.540;9.268;2023-09-08T05:53:39;97723.91;;;13.58;100.00
5284;BME280;15377;48.540;9.268;2023-09-08T05:56:05;97725.28;;;13.68;100.00
5284;BME280;15377;48.540;9.268;2023-09-08T05:58:32;97738.53;;;13.84;100.00
5284;BME280;15377;48.540;9.268;2023-09-08T06:00:57;97729.69;;;14.00;100.00
5284;BME280;15377;48.540;9.268;2023-09-08T06:03:22;97729.78;;;14.11;100.00
5284;BME280;15377;48.540;9.268;2023-09-08T06:05:48;97732.00;;;14.27;100.00
5284;BME280;15377;48.540;9.268;2023-09-08T06:08:13;97729.63;;;14.40;100.00
5284;BME280;15377;48.540;9.268;2023-09-08T06:10:38;97717.50;;;14.63;100.00
5284;BME280;15377;48.540;9.268;2023-09-08T06:13:04;97729.88;;;14.98;100.00
5284;BME280;15377;48.540;9.268;2023-09-08T06:15:30;97731.44;;;15.10;100.00
5284;BME280;15377;48.540;9.268;2023-09-08T06:17:55;97722.00;;;15.27;100.00
5284;BME280;15377;48.540;9.268;2023-09-08T06:20:20;97728.41;;;15.44;100.00
5284;BME280;15377;48.540;9.268;2023-09-08T06:22:46;97734.09;;;15.66;100.00
5284;BME280;15377;48.540;9.268;2023-09-08T06:25:12;97729.34;;;15.78;100.00
5284;BME280;15377;48.540;9.268;2023-09-08T06:27:37;97727.63;;;15.91;100.00
5284;BME280;15377;48.540;9.268;2023-09-08T06:30:03;97723.13;;;15.99;100.00
5284;BME280;15377;48.540;9.268;2023-09-08T06:32:29;97719.13;;;16.11;100.00
5284;BME280;15377;48.540;9.268;2023-09-08T06:34:54;97726.44;;;16.20;100.00
5284;BME280;15377;48.540;9.268;2023-09-08T06:37:19;97727.22;;;16.31;100.00
5284;BME280;15377;48.540;9.268;2023-09-08T06:39:45;97735.63;;;16.42;100.00
5284;BME280;15377;48.540;9.268;2023-09-08T06:42:10;97734.63;;;16.45;100.00
5284;BME280;15377;48.540;9.268;2023-09-08T06:44:36;97731.34;;;16.52;100.00
5284;BME280;15377;48.540;9.268;2023-09-08T06:47:01;97736.16;;;16.74;100.00
5284;BME280;15377;48.540;9.268;2023-09-08T06:49:28;97737.94;;;16.82;100.00
5284;BME280;15377;48.540;9.268;2023-09-08T06:51:53;97740.22;;;16.95;100.00
5284;BME280;15377;48.540;9.268;2023-09-08T06:54:19;97741.97;;;17.09;100.00
5284;BME280;15377;48.540;9.268;2023-09-08T06:56:44;97735.91;;;17.21;100.00
5284;BME280;15377;48.540;9.268;2023-09-08T06:59:10;97746.00;;;17.35;100.00
5284;BME280;15377;48.540;9.268;2023-09-08T07:01:36;97730.81;;;17.47;100.00
5284;BME280;15377;48.540;9.268;2023-09-08T07:04:01;97738.38;;;17.58;100.00
5284;BME280;15377;48.540;9.268;2023-09-08T07:06:27;97744.38;;;17.78;100.00
5284;BME280;15377;48.540;9.268;2023-09-08T07:08:52;97735.97;;;17.89;100.00
5284;BME280;15377;48.540;9.268;2023-09-08T07:11:17;97737.75;;;17.92;100.00
5284;BME280;15377;48.540;9.268;2023-09-08T07:13:43;97737.94;;;18.11;100.00
5284;BME280;15377;48.540;9.268;2023-09-08T07:16:08;97723.97;;;18.16;100.00
5284;BME280;15377;48.540;9.268;2023-09-08T07:18:33;97733.78;;;18.34;100.00
5284;BME280;15377;48.540;9.268;2023-09-08T07:21:01;97741.31;;;18.44;100.00
5284;BME280;15377;48.540;9.268;2023-09-08T07:23:27;97739.47;;;18.52;100.00
5284;BME280;15377;48.540;9.268;2023-09-08T07:25:52;97736.41;;;18.61;100.00
5284;BME280;15377;48.540;9.268;2023-09-08T07:28:18;97745.47;;;18.67;100.00
5284;BME280;15377;48.540;9.268;2023-09-08T07:30:43;97746.41;;;18.75;100.00
5284;BME280;15377;48.540;9.268;2023-09-08T07:33:08;97726.81;;;18.86;100.00
5284;BME280;15377;48.540;9.268;2023-09-08T07:35:38;97736.53;;;19.09;100.00
5284;BME280;15377;48.540;9.268;2023-09-08T07:38:05;97739.47;;;19.22;100.00
5284;BME280;15377;48.540;9.268;2023-09-08T07:40:34;97736.59;;;19.33;100.00
5284;BME280;15377;48.540;9.268;2023-09-08T07:42:59;97724.59;;;19.38;100.00
5284;BME280;15377;48.540;9.268;2023-09-08T07:45:25;97734.38;;;19.50;100.00
5284;BME280;15377;48.540;9.268;2023-09-08T07:47:50;97742.88;;;19.63;100.00
5284;BME280;15377;48.540;9.268;2023-09-08T07:50:24;97738.38;;;19.78;100.00
5284;BME280;15377;48.540;9.268;2023-09-08T07:52:51;97737.72;;;19.91;100.00
5284;BME280;15377;48.540;9.268;2023-09-08T07:55:17;97738.63;;;19.99;100.00
5284;BME280;15377;48.540;9.268;2023-09-08T07:57:43;97736.56;;;20.05;100.00
5284;BME280;15377;48.540;9.268;2023-09-08T08:00:10;97737.28;;;20.05;100.00
5284;BME280;15377;48.540;9.268;2023-09-08T08:02:51;97745.03;;;20.18;100.00
5284;BME280;15377;48.540;9.268;2023-09-08T08:05:16;97738.53;;;20.28;100.00
5284;BME280;15377;48.540;9.268;2023-09-08T08:07:43;97702.88;;;20.16;100.00
5284;BME280;15377;48.540;9.268;2023-09-08T08:10:09;97730.13;;;20.47;100.00
5284;BME280;15377;48.540;9.268;2023-09-08T08:12:35;97726.88;;;20.61;100.00
5284;BME280;15377;48.540;9.268;2023-09-08T08:15:00;97730.50;;;20.75;100.00
5284;BME280;15377;48.540;9.268;2023-09-08T08:17:26;97730.63;;;20.82;100.00
5284;BME280;15377;48.540;9.268;2023-09-08T08:19:53;97728.94;;;20.92;100.00
5284;BME280;15377;48.540;9.268;2023-09-08T08:22:19;97729.63;;;20.98;100.00
5284;BME280;15377;48.540;9.268;2023-09-08T08:24:44;97725.88;;;21.09;100.00
5284;BME280;15377;48.540;9.268;2023-09-08T08:27:09;97701.53;;;21.04;100.00
5284;BME280;15377;48.540;9.268;2023-09-08T08:29:35;97739.41;;;21.36;100.00
5284;BME280;15377;48.540;9.268;2023-09-08T08:32:00;97733.16;;;21.43;100.00
5284;BME280;15377;48.540;9.268;2023-09-08T08:34:26;97720.56;;;21.50;100.00
5284;BME280;15377;48.540;9.268;2023-09-08T08:36:51;97732.56;;;21.76;100.00
5284;BME280;15377;48.540;9.268;2023-09-08T08:39:16;97726.41;;;21.91;100.00
5284;BME280;15377;48.540;9.268;2023-09-08T08:41:43;97719.09;;;22.01;100.00
5284;BME280;15377;48.540;9.268;2023-09-08T08:44:08;97725.09;;;22.18;100.00
5284;BME280;15377;48.540;9.268;2023-09-08T08:46:36;97720.88;;;22.24;100.00
5284;BME280;15377;48.540;9.268;2023-09-08T08:49:04;97711.34;;;22.40;100.00
5284;BME280;15377;48.540;9.268;2023-09-08T08:51:30;97720.47;;;22.54;100.00
5284;BME280;15377;48.540;9.268;2023-09-08T08:53:56;97708.34;;;22.72;100.00
5284;BME280;15377;48.540;9.268;2023-09-08T08:56:22;97707.88;;;22.81;100.00
5284;BME280;15377;48.540;9.268;2023-09-08T08:58:49;97714.19;;;22.94;100.00
5284;BME280;15377;48.540;9.268;2023-09-08T09:01:16;97711.50;;;23.09;100.00
5284;BME280;15377;48.540;9.268;2023-09-08T09:03:48;97718.59;;;23.23;100.00
5284;BME280;15377;48.540;9.268;2023-09-08T09:06:14;97720.91;;;23.32;100.00
5284;BME280;15377;48.540;9.268;2023-09-08T09:08:42;97716.97;;;23.35;100.00
5284;BME280;15377;48.540;9.268;2023-09-08T09:11:09;97721.56;;;23.45;100.00
5284;BME280;15377;48.540;9.268;2023-09-08T09:13:34;97715.09;;;23.58;100.00
5284;BME280;15377;48.540;9.268;2023-09-08T09:16:00;97719.22;;;23.85;100.00
5284;BME280;15377;48.540;9.268;2023-09-08T09:18:28;97719.16;;;24.05;100.00
5284;BME280;15377;48.540;9.268;2023-09-08T09:20:58;97719.66;;;24.39;100.00
5284;BME280;15377;48.540;9.268;2023-09-08T09:23:30;97716.28;;;25.14;100.00
5284;BME280;15377;48.540;9.268;2023-09-08T09:25:57;97729.06;;;26.44;100.00
5284;BME280;15377;48.540;9.268;2023-09-08T09:28:22;97712.97;;;27.50;100.00
5284;BME280;15377;48.540;9.268;2023-09-08T09:30:50;97718.69;;;28.35;100.00
5284;BME280;15377;48.540;9.268;2023-09-08T09:33:19;97717.97;;;29.40;100.00
5284;BME280;15377;48.540;9.268;2023-09-08T09:35:53;97724.56;;;30.26;99.58
5284;BME280;15377;48.540;9.268;2023-09-08T09:38:20;97719.59;;;30.84;86.10
5284;BME280;15377;48.540;9.268;2023-09-08T09:40:47;97713.22;;;30.36;82.05
5284;BME280;15377;48.540;9.268;2023-09-08T09:43:13;97719.28;;;30.80;84.06
5284;BME280;15377;48.540;9.268;2023-09-08T09:45:40;97715.59;;;31.57;83.58
5284;BME280;15377;48.540;9.268;2023-09-08T09:48:06;97709.66;;;32.37;76.16
5284;BME280;15377;48.540;9.268;2023-09-08T09:50:37;97708.16;;;33.12;73.57
5284;BME280;15377;48.540;9.268;2023-09-08T09:53:09;97716.09;;;33.83;68.86
5284;BME280;15377;48.540;9.268;2023-09-08T09:55:37;97714.13;;;33.62;67.66
5284;BME280;15377;48.540;9.268;2023-09-08T09:58:07;97709.63;;;34.05;65.77
5284;BME280;15377;48.540;9.268;2023-09-08T10:00:34;97709.34;;;34.13;65.09
5284;BME280;15377;48.540;9.268;2023-09-08T10:03:00;97704.13;;;34.09;68.12
5284;BME280;15377;48.540;9.268;2023-09-08T10:05:26;97711.97;;;34.70;63.80
5284;BME280;15377;48.540;9.268;2023-09-08T10:07:52;97703.75;;;34.51;60.13
5284;BME280;15377;48.540;9.268;2023-09-08T10:10:18;97704.19;;;35.09;58.69
5284;BME280;15377;48.540;9.268;2023-09-08T10:12:45;97708.22;;;35.70;57.99
5284;BME280;15377;48.540;9.268;2023-09-08T10:15:12;97699.69;;;35.99;55.94
5284;BME280;15377;48.540;9.268;2023-09-08T10:17:40;97702.59;;;35.85;56.17
5284;BME280;15377;48.540;9.268;2023-09-08T10:20:08;97689.84;;;35.88;57.25
5284;BME280;15377;48.540;9.268;2023-09-08T10:22:42;97697.41;;;35.82;55.71
5284;BME280;15377;48.540;9.268;2023-09-08T10:25:08;97674.53;;;36.24;55.23
5284;BME280;15377;48.540;9.268;2023-09-08T10:27:34;97688.00;;;36.64;53.71
5284;BME280;15377;48.540;9.268;2023-09-08T10:30:02;97682.38;;;36.53;53.10
5284;BME280;15377;48.540;9.268;2023-09-08T10:32:30;97684.28;;;36.62;52.29
5284;BME280;15377;48.540;9.268;2023-09-08T10:34:57;97689.53;;;35.96;50.96
5284;BME280;15377;48.540;9.268;2023-09-08T10:37:25;97691.53;;;35.66;54.10
5284;BME280;15377;48.540;9.268;2023-09-08T10:39:54;97679.22;;;35.91;55.17
5284;BME280;15377;48.540;9.268;2023-09-08T10:42:25;97677.78;;;36.32;51.50
5284;BME280;15377;48.540;9.268;2023-09-08T10:44:59;97677.19;;;36.07;51.66
5284;BME280;15377;48.540;9.268;2023-09-08T10:47:55;97680.97;;;36.67;52.38
5284;BME280;15377;48.540;9.268;2023-09-08T10:50:20;97669.44;;;36.52;51.13
5284;BME280;15377;48.540;9.268;2023-09-08T10:53:23;97664.94;;;36.33;49.59
5284;BME280;15377;48.540;9.268;2023-09-08T10:55:52;97673.00;;;36.37;52.37
5284;BME280;15377;48.540;9.268;2023-09-08T10:58:38;97665.53;;;36.74;50.31
5284;BME280;15377;48.540;9.268;2023-09-08T11:01:06;97660.16;;;36.53;50.82
5284;BME280;15377;48.540;9.268;2023-09-08T11:06:05;97663.63;;;36.94;50.45
5284;BME280;15377;48.540;9.268;2023-09-08T11:08:32;97663.72;;;36.38;50.72
5284;BME280;15377;48.540;9.268;2023-09-08T11:10:58;97669.16;;;35.36;53.39
5284;BME280;15377;48.540;9.268;2023-09-08T11:13:23;97662.75;;;32.93;60.41
5284;BME280;15377;48.540;9.268;2023-09-08T11:15:52;97659.97;;;32.08;67.39
5284;BME280;15377;48.540;9.268;2023-09-08T11:18:17;97656.19;;;30.72;75.52
5284;BME280;15377;48.540;9.268;2023-09-08T11:20:53;97671.66;;;30.02;81.42
5284;BME280;15377;48.540;9.268;2023-09-08T11:23:20;97671.06;;;29.30;87.50
5284;BME280;15377;48.540;9.268;2023-09-08T11:25:46;97671.34;;;29.15;90.03
5284;BME280;15377;48.540;9.268;2023-09-08T11:28:12;97673.38;;;28.78;91.36
5284;BME280;15377;48.540;9.268;2023-09-08T11:30:39;97665.69;;;28.62;93.58
5284;BME280;15377;48.540;9.268;2023-09-08T11:33:04;97668.66;;;28.37;96.21
5284;BME280;15377;48.540;9.268;2023-09-08T11:35:31;97653.34;;;28.23;99.18
5284;BME280;15377;48.540;9.268;2023-09-08T11:38:01;97664.06;;;28.25;100.00
5284;BME280;15377;48.540;9.268;2023-09-08T11:40:27;97653.59;;;28.35;100.00
5284;BME280;15377;48.540;9.268;2023-09-08T11:42:53;97656.06;;;28.48;100.00
5284;BME280;15377;48.540;9.268;2023-09-08T11:45:19;97653.25;;;28.31;100.00
5284;BME280;15377;48.540;9.268;2023-09-08T11:47:48;97655.09;;;28.36;100.00
5284;BME280;15377;48.540;9.268;2023-09-08T11:50:15;97650.75;;;28.35;100.00
5284;BME280;15377;48.540;9.268;2023-09-08T11:52:49;97652.25;;;28.36;100.00
5284;BME280;15377;48.540;9.268;2023-09-08T11:55:16;97663.50;;;28.26;100.00
5284;BME280;15377;48.540;9.268;2023-09-08T11:57:44;97648.59;;;28.26;100.00
5284;BME280;15377;48.540;9.268;2023-09-08T12:00:11;97649.78;;;28.23;100.00
5284;BME280;15377;48.540;9.268;2023-09-08T12:02:41;97643.50;;;27.98;100.00
5284;BME280;15377;48.540;9.268;2023-09-08T12:05:20;97650.94;;;28.03;100.00
5284;BME280;15377;48.540;9.268;2023-09-08T12:07:46;97640.47;;;27.96;100.00
5284;BME280;15377;48.540;9.268;2023-09-08T12:10:12;97647.81;;;27.99;100.00
5284;BME280;15377;48.540;9.268;2023-09-08T12:12:51;97638.41;;;27.96;100.00
5284;BME280;15377;48.540;9.268;2023-09-08T12:15:37;97642.66;;;28.05;100.00
5284;BME280;15377;48.540;9.268;2023-09-08T12:18:09;97646.28;;;28.15;100.00
5284;BME280;15377;48.540;9.268;2023-09-08T12:20:36;97645.44;;;28.22;100.00
5284;BME280;15377;48.540;9.268;2023-09-08T12:23:15;97657.41;;;28.30;100.00
5284;BME280;15377;48.540;9.268;2023-09-08T12:25:51;97642.34;;;28.27;100.00
5284;BME280;15377;48.540;9.268;2023-09-08T12:28:20;97638.38;;;28.13;100.00
5284;BME280;15377;48.540;9.268;2023-09-08T12:30:46;97639.13;;;28.14;100.00
5284;BME280;15377;48.540;9.268;2023-09-08T12:33:12;97636.81;;;28.03;98.44
5284;BME280;15377;48.540;9.268;2023-09-08T12:35:42;97635.97;;;28.10;100.00
5284;BME280;15377;48.540;9.268;2023-09-08T12:38:08;97635.31;;;28.02;100.00
5284;BME280;15377;48.540;9.268;2023-09-08T12:40:36;97631.56;;;27.99;100.00
5284;BME280;15377;48.540;9.268;2023-09-08T12:43:02;97633.13;;;28.10;98.56
5284;BME280;15377;48.540;9.268;2023-09-08T12:45:28;97634.81;;;28.13;98.32
5284;BME280;15377;48.540;9.268;2023-09-08T12:47:54;97635.94;;;28.27;100.00
5284;BME280;15377;48.540;9.268;2023-09-08T12:50:24;97631.75;;;28.28;95.40
5284;BME280;15377;48.540;9.268;2023-09-08T12:52:49;97628.47;;;28.22;92.80
5284;BME280;15377;48.540;9.268;2023-09-08T12:55:14;97620.13;;;28.24;95.02
5284;BME280;15377;48.540;9.268;2023-09-08T12:57:40;97625.03;;;28.23;92.81
5284;BME280;15377;48.540;9.268;2023-09-08T13:00:06;97625.22;;;28.25;89.32
5284;BME280;15377;48.540;9.268;2023-09-08T13:02:32;97608.38;;;28.27;91.94